Tampa, Florida
Traffic Map
Current Weather Conditions
Tampa, Florida
Scattered Clouds
Scattered Clouds
23°
Feels Like: 23°
Wind Chill: 23° Ceiling: Unl
Heat Index: 23° Visibility: 10mi
Dew Point: 17° Wind: 7mph
Humidity: 68% Direction: 240° (WSW)
Pressure: 30.18in Gusts: 0mph
Raw Report DataKTPA 311453Z 24006KT 10SM SCT025 23/17 A3018 RMK AO2 SLP221 T02330172 51004
Traffic Incident Summary
Active as of:
Severity:
Category:
InformationThere was an issue retrieving the traffic information for this location. Please try a different location or try again shortly.
Advertisements
Track Severe Weather on mobile